Terminal Aerodrome Forecast
Issued by NWS

Home | Current Version | Previous Version | Graphics & Text | Print | Product List | Glossary Off
Versions: 1 2 3 4 5 6 7 8 9 10 11 12 13 14 15 16 17 18 19 20

000
FTUS43 KDDC 231736
TAFHYS
TAF
KHYS 231736Z 2318/2418 08013KT P6SM BKN110
     FM232200 06013KT P6SM VCSH BKN060
     FM240300 35015KT P6SM VCSH BKN015
     FM240500 34016KT P6SM VCSH BKN015
     FM240700 33020G28KT P6SM BKN015
     FM241000 32018KT P6SM BKN020=

USA.gov is the U.S. government's official web portal to all federal, state and local government web resources and services.